METAR Data
IDs: Format: Raw Decoded Include TAF

Data at: 0652 UTC 23 Feb 2019

PADU 230613Z AUTO 14013G22KT 5SM -RA BR BKN015 OVC020 06/04 A2979 RMK AO2 P0000
PADU 230556Z AUTO 14017G25KT 6SM -RA BR OVC013 06/04 A2979 RMK AO2 SLP093 P0000 6//// T00610039 10072 20061 58006
PADU 230456Z AUTO 14009G16KT 8SM -RA BKN013 OVC022 06/04 A2980 RMK AO2 RAE26B47 SLP096 P0000 T00610039
PADU 230356Z 15015G23KT 7SM -RA SCT003 BKN015 OVC020 06/04 A2981 RMK AO2 SLP099 P0000 T00610039
PADU 230256Z 15013G20KT 6SM -RA BR SCT003 BKN015 OVC020 06/04 A2982 RMK AO2 SLP102 P0000 6//// T00610039 58002
PADU 230232Z 15015G22KT 6SM -RA BR SCT003 BKN015 OVC020 06/04 A2982 RMK AO2 P0000
PADU 230156Z 15014G20KT 7SM -RA OVC022 07/04 A2982 RMK AO2 SLP104 VIS NE 5 E 4 P0000 T00670039
PADU 230130Z 15014G21KT 9SM -RA BKN017 OVC043 07/04 A2983 RMK AO2 VIS NE 5 E 4 P0000
PADU 230103Z 15015G20KT 7SM -RA BKN037 OVC043 07/04 A2982 RMK AO2 P0000
PADU 230056Z 15014G20KT 8SM -RA BKN017 OVC043 07/04 A2982 RMK AO2 PK WND 15026/0011 SLP103 VIS NE 5 E 4 T00720044
PADU 222356Z 15015G22KT 9SM -RA SCT018 BKN049 07/04 A2983 RMK AO2 SLP104 6//// T00720044 10072 20039 56025 PNO $
PADU 222256Z 15013G19KT 9SM -RA FEW014 SCT029 OVC038 06/04 A2986 RMK AO2 SLP115 VIS NE 5 E 4 T00610039 PNO $
PADU 222156Z 13020G24KT 8SM -RA FEW018 OVC037 06/03 A2986 RMK AO2 PK WND 14026/2141 SLP117 T00560028 PNO $
PADU 222056Z 14013G20KT 9SM -RA BKN015 BKN020 05/02 A2990 RMK AO2 RAB36 SLP129 6//// T00500022 58014 PNO $
PADU 221956Z VRB06G21KT 10SM FEW009 BKN015 04/02 A2992 RMK AO2 SLP135 T00440017 PNO $
PADU 221856Z 14006G15KT 10SM BKN015 OVC025 04/01 A2993 RMK AO2 SLP141 T00440011 PNO $
PADU 221756Z 15007G18KT 10SM OVC016 03/01 A2994 RMK AO2 SLP143 6//// T00330006 10039 20028 56015 PNO $
PADU 221656Z 14006G19KT 10SM BKN024 OVC028 03/M01 A2996 RMK AO2 SLP150 T00331011 PNO $
PADU 221652Z 15011G20KT 10SM OVC028 03/M01 A2996 RMK AO2 PNO $
PADU 221556Z 15015G22KT 10SM OVC030 03/M03 A2998 RMK AO2 PK WND 15028/1517 UPB1459E11 SLP158 T00331028 PNO $
PADU 221548Z AUTO 14017G25KT 10SM OVC030 03/M03 A2999 RMK AO2 PK WND 15028/1517 UPB1459E11 PNO $
PADU 221503Z AUTO 15018G22KT 10SM UP OVC029 03/M02 A3000 RMK AO2 UPB1459 PNO $
PADU 221456Z AUTO 15015G23KT 10SM OVC031 03/M02 A3001 RMK AO2 SLP166 6//// T00281022 58021 PNO $
PADU 221414Z AUTO 16011G20KT 10SM OVC031 03/M03 A3003 RMK AO2 PNO $
PADU 221356Z AUTO 16015G20KT 10SM OVC029 03/M03 A3003 RMK AO2 UPB35E46 SLP175 T00331033 PNO $
PADU 221339Z AUTO 17013KT 10SM UP BKN029 OVC037 03/M02 A3005 RMK AO2 UPB35 PNO $
PADU 221256Z AUTO 16012G21KT 10SM OVC035 03/M03 A3005 RMK AO2 SLP182 T00331033 PNO $
PADU 221156Z AUTO 17013G23KT 10SM OVC037 03/M03 A3007 RMK AO2 SLP187 6//// 7//// T00331033 10033 20028 58017 PNO $
PADU 221056Z AUTO 17010G16KT 10SM BKN037 03/M03 A3009 RMK AO2 SLP194 T00281033 PNO $
PADU 220956Z AUTO 18013G16KT 10SM BKN037 03/M04 A3010 RMK AO2 SLP199 T00281039 PNO $
PADU 220856Z AUTO 16010G19KT 10SM BKN039 03/M04 A3012 RMK AO2 SLP204 6//// T00281039 400390006 58010 PNO $
PADU 220756Z AUTO 16009G15KT 10SM BKN039 03/M04 A3013 RMK AO2 SLP208 T00281044 PNO $
PADU 220656Z AUTO 16008KT 10SM FEW039 03/M04 A3014 RMK AO2 SLP211 T00281044 PNO $
PADU 220556Z AUTO 15008KT 10SM CLR 03/M04 A3015 RMK AO2 SLP213 6//// T00281044 10039 20028 56013 PNO $
PADU 220456Z 17008KT 10SM CLR 03/M04 A3015 RMK AO2 SLP214 T00281044 PNO $
PADU 220356Z 17006KT 10SM CLR 03/M05 A3017 RMK AO2 SLP220 T00331050 PNO $
PADU 220256Z 19010KT 10SM FEW100 BKN150 03/M05 A3019 RMK AO2 SLP226 6//// T00331050 57012 PNO $
PADU 220156Z 17011KT 10SM FEW060 BKN150 04/M05 A3020 RMK AO2 SLP230 T00391050 PNO $
PADU 220056Z 19009G17KT 10SM FEW040 BKN150 03/M04 A3021 RMK AO2 SLP234 T00331044 PNO $
PADU 212356Z 18012G18KT 10SM FEW040 BKN150 03/M05 A3022 RMK AO2 SLP238 6//// T00331050 10039 20011 58023 PNO $
PADU 212256Z 17007KT 10SM FEW040 BKN150 04/M04 A3026 RMK AO2 SLP250 T00391044 PNO $
PADU 212156Z 20009KT 10SM FEW060 BKN150 03/M05 A3028 RMK AO2 SLP257 T00331050 PNO $
PADU 212056Z 16006KT 10SM CLR 03/M05 A3029 RMK AO2 RAB35E45 SLP261 6//// T00281050 58013 PNO $
PADU 211956Z 21004KT 10SM BKN048 BKN150 BKN200 02/M04 A3031 RMK AO2 SLP270 T00221044 PNO $
PADU 211856Z 15006KT 10SM BKN046 02/M06 A3032 RMK AO2 SLP271 T00221056 PNO $